METAR Data
IDs: Format: Raw Decoded Include TAF

Data at: 0840 UTC 18 Nov 2018

PABR 180753Z AUTO 07013KT 8SM -SN OVC008 M13/M14 A2979 RMK SNB29 SLP089 P0000 T11281144 TSNO VIA AUTODIAL
PABR 180653Z AUTO 07013KT 7SM OVC008 M13/M14 A2979 RMK SNE32 SLP088 P0000 T11331144 VIA AUTODIAL
PABR 180553Z 06013KT 6SM -SN BR OVC008 M13/M14 A2978 RMK SLP087 P0000 60000 T11281144 11117 21133 56004 VIA AUTODIAL
PABR 180453Z 07012KT 5SM -SN BR OVC008 M13/M14 A2979 RMK SLP088 P0000 T11331144 VIA AUTODIAL
PABR 180353Z 08015KT 7SM -SN OVC008 M13/M14 A2978 RMK SNE0256B14 SLP087 P0000 T11281144 VIA AUTODIAL
PABR 180351Z 08014KT 6SM -SN BR OVC008 M13/M14 A2978 RMK SNE0256B14 P0000 VIA AUTODIAL
PABR 180253Z 07016KT 7SM -SN OVC010 M13/M14 A2979 RMK SNB48 SLP091 P0000 60000 T11281139 58004 VIA AUTODIAL
PABR 180153Z 07015KT 9SM OVC010 M12/M14 A2980 RMK SNB42E48 SLP092 P0000 T11221139 VIA AUTODIAL
PABR 180053Z 08016KT 10SM OVC010 M12/M14 A2981 RMK SNE2357 SLP095 P0000 T11221139 VIA AUTODIAL
PABR 172353Z 07014KT 7SM -SN OVC010 M12/M13 A2981 RMK SNB2254 SLP095 P0000 60000 T11171133 11117 21117 58010 VIA AUTODIAL
PABR 172253Z 07013KT 9SM OVC010 M12/M13 A2983 RMK SNE21 SLP103 P0000 T11171133 VIA AUTODIAL
PABR 172153Z 07015KT 8SM -SN OVC010 M12/M13 A2983 RMK SNB17 SLP104 P0000 T11171133 VIA AUTODIAL
PABR 172053Z 07016KT 8SM OVC010 M12/M13 A2984 RMK SNB1954E51 SLP105 P0000 60000 T11171133 57010 VIA AUTODIAL
PABR 171953Z 06016KT 7SM OVC010 M12/M13 A2984 RMK SNE50 SLP108 P0000 T11171133 VIA AUTODIAL
PABR 171853Z 07015KT 6SM -SN BR OVC010 M12/M13 A2986 RMK SLP112 P0000 T11171133 VIA AUTODIAL
PABR 171753Z 07015KT 3SM -SN BR OVC010 M12/M13 A2987 RMK SLP115 P0000 60000 T11171133 11106 21117 56012 VIA AUTODIAL
PABR 171653Z 07016KT 4SM -SN BR OVC010 M12/M13 A2987 RMK SLP118 P0000 T11171133 VIA AUTODIAL
PABR 171553Z 07016KT 4SM -SN BR OVC010 M11/M13 A2989 RMK SLP123 P0000 T11111128 VIA AUTODIAL
PABR 171453Z 08017KT 4SM -SN BR OVC010 M11/M13 A2990 RMK SLP127 P0000 60000 T11111128 56020 VIA AUTODIAL
PABR 171400Z AUTO 08017KT 3SM -SN BR OVC010 M11/M12 A2992 RMK P0000 T11061122 TSNO VIA AUTODIAL
PABR 171353Z AUTO 08015KT 2 1/2SM -SN BR OVC010 M11/M12 A2992 RMK VIS 2V4 SNB1257 SLP133 P0000 T11061122 TSNO VIA AUTODIAL
PABR 171253Z AUTO 08018KT 5SM BR OVC012 M11/M13 A2994 RMK SLP139 T11111128 TSNO VIA AUTODIAL
PABR 171153Z AUTO 08016KT 9SM OVC010 M11/M13 A2996 RMK SLP147 60000 70001 T11111128 11094 21111 58021 TSNO VIA AUTODIAL
PABR 171053Z AUTO 08018KT 6SM BR BKN010 M11/M12 A2998 RMK SLP155 T11061122 TSNO VIA AUTODIAL
PABR 170953Z AUTO 08015KT 4SM BR OVC010 M10/M12 A3001 RMK SNB03E17 SLP163 P0000 T11001117 TSNO VIA AUTODIAL
PABR 170951Z AUTO 08016KT 4SM BR OVC010 M10/M12 A3001 RMK SNB03E17 P0000 TSNO VIA AUTODIAL
PABR 170919Z AUTO 08019KT 3SM BR OVC008 M09/M11 A3002 RMK SNB03E17 P0000 T10941111 TSNO VIA AUTODIAL
PABR 170912Z AUTO 08020KT 2 1/2SM -SN BR OVC008 M09/M11 A3002 RMK SNB03 P0000 T10941111 TSNO VIA AUTODIAL
PABR 170901Z AUTO 08020KT 3SM BR OVC008 M09/M11 A3002 RMK T10941111 TSNO VIA AUTODIAL
PABR 170853Z AUTO 08021KT 2 1/2SM BR OVC008 M09/M11 A3003 RMK VIS 2V3 SNE0757B21E45 SLP169 P0000 60000 T10941111 410221100 58014 TSNO VIA AUTODIAL
PABR 170851Z AUTO 08021KT 2 1/2SM BR OVC008 M09/M11 A3002 RMK VIS 2V3 SNE0757B21E45 P0000 TSNO VIA AUTODIAL
PABR 170753Z AUTO 08018KT 3SM -SN BR OVC008 M09/M11 A3005 RMK SLP177 P0000 T10941111 TSNO VIA AUTODIAL
PABR 170749Z AUTO 08021KT 3SM -SN BR OVC008 M10/M11 A3005 RMK P0000 TSNO VIA AUTODIAL
PABR 170737Z AUTO 08019KT 2 1/2SM -SN BR OVC008 M10/M11 A3005 RMK P0000 T11001111 TSNO VIA AUTODIAL
PABR 170705Z AUTO 08017KT 1 1/4SM -SN BR OVC008 M10/M11 A3006 RMK P0000 T11001111 TSNO VIA AUTODIAL
PABR 170653Z AUTO 08021KT 2SM -SN BR OVC008 M10/M12 A3007 RMK SLP183 P0000 T11001117 TSNO VIA AUTODIAL
PABR 170651Z AUTO 08021KT 2 1/2SM -SN BR OVC008 M10/M12 A3006 RMK P0000 TSNO VIA AUTODIAL
PABR 170553Z 07019KT 3SM -SN BR OVC008 M09/M11 A3008 RMK SNB0456 SLP189 P0000 60001 T10941106 11078 21094 58022 VIA AUTODIAL
PABR 170453Z 08016KT 3SM BR OVC008 M09/M10 A3011 RMK SNE0356B04E45 SLP197 P0001 T10891100 VIA AUTODIAL
PABR 170451Z 08018KT 3SM BR OVC008 M09/M10 A3011 RMK SNE0356B04E45 P0001 VIA AUTODIAL
PABR 170406Z 09012KT 2SM -SN BR OVC008 M09/M10 A3013 RMK SNE0356B04 P0000 T10891100 VIA AUTODIAL
PABR 170357Z 08014KT 3SM BR OVC010 M09/M10 A3014 RMK VIS 2 1/2 NE SNE56 P0000 T10891100 VIA AUTODIAL
PABR 170353Z 09015KT 2SM -SN BR OVC008 M09/M10 A3014 RMK VIS 1V4 SLP207 P0000 T10891100 VIA AUTODIAL
PABR 170253Z 10015KT 1 1/4SM -SN BR OVC006 M09/M10 A3015 RMK SNB51 SLP211 P0000 60000 T10891100 56016 VIA AUTODIAL
PABR 170249Z 10015KT 1 3/4SM BR OVC006 M09/M10 A3015 RMK VIS 3/4 NE VIA AUTODIAL
PABR 170214Z 09018KT 8SM OVC008 M08/M09 A3015 RMK T10831094 VIA AUTODIAL
PABR 170213Z 08019G24KT 8SM OVC008 M08/M09 A3015
PABR 170153Z 09016KT 10SM FEW008 OVC029 M08/M09 A3016 RMK SLP215 T10831094 VIA AUTODIAL
PABR 170151Z 10016KT 10SM FEW008 OVC029 M08/M09 A3016 RMK VIA AUTODIAL
PABR 170053Z 09014KT 10SM OVC033 M08/M09 A3018 RMK SLP221 T10831094 VIA AUTODIAL
PABR 162353Z 09013KT 10SM OVC033 M08/M10 A3020 RMK SLP227 T10831100 11061 21083 58015 VIA AUTODIAL
PABR 162253Z 11011KT 10SM OVC033 M08/M11 A3023 RMK SLP238 T10831111 VIA AUTODIAL
PABR 162225Z 11013KT 10SM OVC031 M08/M09 A3023 RMK T10781089 VIA AUTODIAL
PABR 162153Z 11015KT 10SM FEW006 OVC028 M07/M08 A3024 RMK SLP241 T10721083 VIA AUTODIAL
PABR 162126Z 11015KT 10SM FEW006 OVC026 M07/M08 A3024 RMK T10721083 VIA AUTODIAL
PABR 162053Z 11013KT 10SM OVC025 M07/M08 A3024 RMK SLP241 T10671078 58003 VIA AUTODIAL